DLH919 EDDM-EDHI
Flight info
| Callsign | DLH919 |
|---|---|
| Flight time | N/A |
| Altitude | 36000 |
| Route | INPUD2N INPUD Y102 ALIBU DCT MASEK/N0436F350 DCT ELNAT/N0431F340 P605 NOLGO |
| Aircraft | A388/J-SADE2E3FGHIJ3J4J5M1RWXY/LB1D1 |
Departure
| Time | 2026-05-04 01:30 |
|---|---|
| Airport | Munich Airport (EDDM) |
Arrival
| Time | N/A |
|---|---|
| Airport | Hamburg-Finkenwerder Airport (EDHI) |
| Time | Latitude | Longitude | Altitude | Speed | Heading |
|---|---|---|---|---|---|
| 2026-05-04 01:21 | 48.35371 | 11.79470 | 1460 ft | 4 kts | 1° |
| 2026-05-04 01:21 | 48.35361 | 11.79470 | 1460 ft | 1 kts | 353° |
| 2026-05-04 01:23 | 48.35367 | 11.79469 | 1472 ft | 3 kts | 353° |
| 2026-05-04 01:23 | 48.35410 | 11.79461 | 1463 ft | 9 kts | 353° |
| 2026-05-04 01:23 | 48.35492 | 11.79447 | 1466 ft | 14 kts | 353° |
| 2026-05-04 01:24 | 48.35605 | 11.79428 | 1467 ft | 18 kts | 353° |
| 2026-05-04 01:24 | 48.35740 | 11.79403 | 1466 ft | 21 kts | 353° |
| 2026-05-04 01:24 | 48.35844 | 11.79385 | 1464 ft | 10 kts | 355° |
| 2026-05-04 01:24 | 48.35919 | 11.79355 | 1465 ft | 13 kts | 341° |
| 2026-05-04 01:25 | 48.36017 | 11.79330 | 1466 ft | 16 kts | 354° |
| 2026-05-04 01:25 | 48.36136 | 11.79312 | 1470 ft | 9 kts | 353° |
| 2026-05-04 01:25 | 48.36177 | 11.79312 | 1466 ft | 8 kts | 12° |
| 2026-05-04 01:25 | 48.36203 | 11.79360 | 1464 ft | 9 kts | 75° |
| 2026-05-04 01:26 | 48.36216 | 11.79492 | 1468 ft | 16 kts | 83° |
| 2026-05-04 01:26 | 48.36230 | 11.79693 | 1465 ft | 22 kts | 84° |
| 2026-05-04 01:26 | 48.36250 | 11.79941 | 1464 ft | 24 kts | 83° |
| 2026-05-04 01:26 | 48.36266 | 11.80146 | 1462 ft | 19 kts | 84° |
| 2026-05-04 01:27 | 48.36283 | 11.80370 | 1465 ft | 24 kts | 83° |
| 2026-05-04 01:27 | 48.36304 | 11.80632 | 1469 ft | 27 kts | 83° |
| 2026-05-04 01:27 | 48.36327 | 11.80913 | 1468 ft | 29 kts | 83° |
| 2026-05-04 01:27 | 48.36348 | 11.81224 | 1465 ft | 30 kts | 83° |
| 2026-05-04 01:28 | 48.36373 | 11.81544 | 1468 ft | 31 kts | 83° |
| 2026-05-04 01:28 | 48.36395 | 11.81876 | 1468 ft | 32 kts | 90° |
| 2026-05-04 01:28 | 48.36396 | 11.82089 | 1467 ft | 18 kts | 83° |
| 2026-05-04 01:28 | 48.36415 | 11.82271 | 1464 ft | 10 kts | 63° |
| 2026-05-04 01:29 | 48.36471 | 11.82307 | 1461 ft | 12 kts | 359° |
| 2026-05-04 01:29 | 48.36559 | 11.82275 | 1460 ft | 14 kts | 317° |
| 2026-05-04 01:29 | 48.36629 | 11.82154 | 1460 ft | 17 kts | 304° |
| 2026-05-04 01:29 | 48.36676 | 11.81994 | 1466 ft | 19 kts | 275° |
| 2026-05-04 01:30 | 48.36628 | 11.81311 | 1465 ft | 111 kts | 263° |
| 2026-05-04 01:30 | 48.36518 | 11.79831 | 1506 ft | 165 kts | 263° |
| 2026-05-04 01:30 | 48.36385 | 11.78074 | 2003 ft | 172 kts | 264° |
| 2026-05-04 01:30 | 48.36257 | 11.76256 | 2535 ft | 176 kts | 267° |
| 2026-05-04 01:31 | 48.36314 | 11.74427 | 3058 ft | 175 kts | 286° |
| 2026-05-04 01:31 | 48.36759 | 11.72756 | 3546 ft | 173 kts | 304° |
| 2026-05-04 01:31 | 48.37568 | 11.71361 | 3974 ft | 183 kts | 321° |
| 2026-05-04 01:31 | 48.38708 | 11.70377 | 4317 ft | 202 kts | 336° |
| 2026-05-04 01:32 | 48.40097 | 11.69555 | 4817 ft | 229 kts | 338° |
| 2026-05-04 01:32 | 48.41463 | 11.68761 | 5375 ft | 251 kts | 338° |
| 2026-05-04 01:32 | 48.42193 | 11.68342 | 5661 ft | 261 kts | 338° |
| 2026-05-04 01:33 | 48.43032 | 11.67863 | 6045 ft | 269 kts | 333° |
| 2026-05-04 01:33 | 48.44446 | 11.66820 | 6686 ft | 261 kts | 303° |
| 2026-05-04 01:33 | 48.45008 | 11.66200 | 6938 ft | 251 kts | 296° |